Accueil
METAR-TAF:

METAR-TAF

Aéroports :

Büchel, Allemagne

Base aérienne de Büchel

latitude: 50-10N, longitude: 007-04E, altitude: 478 m

Observation

Le bulletin a été fait il y a 27 minutes, à 16:20 UTC
Vent 3 kt de direction variable
Température 20°C
Humidité 49%
Pression 1020 hPa
Visibilité 10 km ou plus

METAR: ETSB 221620Z AUTO VRB03KT 9999 // ////// 20/09 Q1020 ///

Heure: 18:47 (16:47 UTC)

Prévision

Le bulletin a été fait il y a 1 heure et 2 minutes, à 15:45 UTC
Prévision valable du 22 à 15 UTC au 22 à 23 UTC
Vent 3 kt de direction variable
Visibilité 10 km ou plus
Quelques nuages à une hauteur de 4000 ft
Nuages fragmentés à une hauteur de 27000 ft

TAF: ETSB 221545Z 2215/2223 VRB03KT 9999 NSW FEW040 BKN270 CANCEL 1600Z BY ETGL

Observations et prévisions météorologiques de plus de 4000 aéroports (messages METAR et TAF).

Les stations disponibles sont représentées par des disques jaunes et rouges sur la carte.

Passer la souris dessus pour voir le nom de la station.

Cliquer dessus pour voir les observations et prévisions météorologiques.

Pour changer de carte: cliquez sur les boutons verts avec une croix noire pour zoomer, sur le bouton vert avec un tiret pour effectuer un zoom arrière, ou sur les flèches vertes pour les cartes adjacentes.


METAR-TAF: